Você está realizando uma questão de Piloto Comercial de Avião - Meteorologia.

No METAR SBCG 212000Z 30010KT 4000 HZ SCT018 BKN100 29/20 Q1020, tem-se:

Você acertou a questão!

A resposta correta é a letra B

Explicação da resposta correta:

Até o momento, não foi encontrada uma explicação para esta questão em nosso sistema

OPS...

Parece que você ainda não possui nenhum plano de assinatura conosco. Não perca tempo! Assine agora um dos nossos planos para ter acesso imediato às respostas. Adquira já!

plugins premium WordPress